Palmdale Regional/USAF Plant 42 Airport
KPMD : now visible

Airfield :











YOU CAN JOIN US ON...

 
LOGIN :

Register | Disclaimer

   EN    FR    IT 

 









Legend :    VFR   Marginal VFR   IFR   Intensive IFR   Very Intensive IFR
Visi :
Ceiling :
>= 8 km
>= 3000ft
5 to 8 km
1000 to 3000 ft
1500m to 5 km
500 to 1000 ft
800 to 1500m
200 to 500 ft
< 800m
< 200 ft
Symbols :   Thunderstorms  Fog  Heavy snow  Heavy precipitations  Wind > 20 kt







- Airport Elevation : 2543 ft
- IATA code : PMD


KPMD - Palmdale Regional/USAF Plant 42

CURRENT METAR :
  • 210753Z AUTO 23009KT 10SM CLR 11/02 A2993 RMK AO2 SLP123 T01060022 401830072

EXPIRED METARs :
  • 210653Z AUTO 24013KT 10SM CLR 12/01 A2996 RMK AO2 SLP134 T01220011
  • 210553Z AUTO VRB05G24KT 10SM CLR 13/02 A2995 RMK AO2 SLP131 T01330017 10172 20122 50010

TAF KPMD
Valid from the 21 at 06:00 until the 22 at 06:00 UTC


210558Z 2106/2206 21008KT P6SM FEW050 SCT100
FM211000 27018G24KT P6SM FEW035 SCT050
FM211500 27027G39KT 6SM BLDU VCSH SCT035 BKN050
FM212100 27025G33KT P6SM VCSH SCT035 BKN050
FM212300 28020G28KT P6SM FEW035 SCT050
FM220100 29015G25KT P6SM FEW050
KZLA FIR / North America



MET'MAP, your aeronautical weather chart ! - Copyright ORBIFLY December 2007 - Disclaimer

ORBIFLY MET'MAP TEAM :

Programming & Development : Alexandra Zaïnal
Concept & Development : Baudouin d'Aumeries
Co-Development & Prog : Marc-Olivier Méhu
Technical & hardware support : Manuel Goepfert

Contact : metmap@orbifly.com




SOURCES & CREDITS :

   NOAA       Earth
Advisory